Main page
METAR-TAF:

METAR-TAF

Airports :

Amsterdam, Netherlands

Amsterdam Airport Schiphol

latitude: 52-18N, longitude: 004-46E, elevation: -4 m

Current weather observation

The report was made 42 minutes ago, at 21:25 UTC
Wind 5 kt from the East
Temperature 3°C
Humidity 81%
Pressure 1018 hPa
Visibility: 9000 m
Few clouds at a height of 2200 ft
Broken clouds at a height of 2500 ft
Overcast at a height of 2800 ft

METAR: EHAM 192125Z 09005KT 9000 FEW022 BKN025 OVC028 03/00 Q1018 NOSIG

Time: 23:07 (22:07 UTC)

Forecast

The report was made 4 hours and 49 minutes ago, at 17:18 UTC
Forecast valid from 19 at 18 UTC to 20 at 24 UTC
Wind 5 kt from the East/Southeast
Visibility: 8000 m
Scattered clouds at a height of 2500 ft
Probability 40%
from 20 at 01 UTC to 20 at 09 UTC
Visibility: 3500 m
Shallow fog, mist
Becoming
from 20 at 02 UTC to 20 at 05 UTC
Wind 5 kt from the East

TAF: EHAM 191718Z 1918/2024 12005KT 8000 SCT025 PROB40 2001/2009 3500 MIFG BR BECMG 2002/2005 08005KT

Weather observations and forecasts of more than 4000 airports (METAR and TAF reports).

The available stations are represented by yellow and red dots on the map.

Hover mouse over dot to see the name of the station.

Then click to see weather observations and forecasts.

To change the map : click on the green buttons with a black cross to zoom in, on the green button with a dash to zoom out, or on the green arrows for adjacent maps.


METAR-TAF: